Time;durP1;ratioP1;P1;durP2;ratioP2;P2;SDS_P1;SDS_P2;PMS_P1;PMS_P2;Temp;Humidity;BMP_temperature;BMP_pressure;BME280_temperature;BME280_humidity;BME280_pressure;Samples;Min_cycle;Max_cycle;Signal;HPM_P1;HPM_P2
2023/04/21 00:00:11;;;;;;;;;;;;;;;;;;;;;
2023/04/21 00:03:50;;;;;;;51.40;22.40;;;;;;;6.32;84.91;100467.07;133621;1301;22420;-78
2023/04/21 00:11:02;;;;;;;;;;;;;;;;;;;;;
2023/04/21 00:14:03;;;;;;;35.60;19.40;;;;;;;6.37;85.44;100457.64;133579;1309;22733;-78
2023/04/21 00:17:13;;;;;;;33.70;18.40;;;;;;;6.43;85.49;100456.94;133422;1303;22280;-78
2023/04/21 00:20:38;;;;;;;34.10;18.30;;;;;;;6.48;85.44;100458.30;133712;1304;22367;-78
2023/04/21 00:23:41;;;;;;;36.40;18.00;;;;;;;6.51;85.29;100455.63;134157;1297;22374;-78
2023/04/21 00:26:51;;;;;;;33.70;18.50;;;;;;;6.53;85.49;100452.58;134314;1296;23199;-84
2023/04/21 00:30:22;;;;;;;33.90;18.60;;;;;;;6.58;85.38;100449.73;134347;1298;24188;-79
2023/04/21 00:33:23;;;;;;;32.20;17.80;;;;;;;6.65;85.59;100449.62;134105;1299;23153;-78
2023/04/21 00:37:16;;;;;;;;;;;;;;;;;;;;;
2023/04/21 00:41:03;;;;;;;41.90;17.70;;;;;;;6.69;84.91;100446.61;134121;1290;22364;-78
2023/04/21 00:44:31;;;;;;;33.40;18.60;;;;;;;6.67;84.65;100449.12;134176;1299;22402;-77
2023/04/21 00:48:39;;;;;;;27.20;17.40;;;;;;;6.69;84.65;100447.51;133919;1301;23142;-82
2023/04/21 00:51:36;;;;;;;28.90;17.20;;;;;;;6.69;84.30;100451.39;134284;1297;22355;-79
2023/04/21 00:55:17;;;;;;;;;;;;;;;;;;;;;
2023/04/21 00:59:19;;;;;;;34.00;17.00;;;;;;;6.69;84.24;100450.86;134325;1297;22663;-79
2023/04/21 01:02:44;;;;;;;27.70;16.50;;;;;;;6.66;84.12;100449.55;134094;1298;22633;-82
2023/04/21 01:06:09;;;;;;;31.60;16.80;;;;;;;6.64;84.05;100453.20;134139;1298;22352;-78
2023/04/21 01:09:24;;;;;;;31.50;16.60;;;;;;;6.64;84.24;100448.98;134127;1296;22439;-78
2023/04/21 01:12:26;;;;;;;27.30;16.00;;;;;;;6.67;84.03;100446.80;134299;1302;22544;-78
2023/04/21 01:15:57;;;;;;;30.10;17.20;;;;;;;6.69;83.83;100449.59;134321;1298;22460;-81
2023/04/21 01:19:00;;;;;;;38.60;17.90;;;;;;;6.72;83.89;100450.63;134282;1297;23129;-79
2023/04/21 01:22:14;;;;;;;27.30;15.80;;;;;;;6.72;83.54;100450.73;134099;1304;22367;-79
2023/04/21 01:25:35;;;;;;;28.70;16.30;;;;;;;6.73;83.67;100451.00;134301;1298;23050;-78
2023/04/21 01:28:38;;;;;;;29.60;15.80;;;;;;;6.74;83.42;100446.91;134316;1296;22337;-79
2023/04/21 01:32:23;;;;;;;30.90;16.90;;;;;;;6.75;83.34;100456.33;134092;1304;22431;-78
2023/04/21 01:35:29;;;;;;;39.50;16.20;;;;;;;6.73;83.05;100448.95;134276;1298;22405;-79
2023/04/21 01:38:31;;;;;;;28.80;16.10;;;;;;;6.72;82.95;100448.66;134068;1296;22391;-78
2023/04/21 01:41:32;;;;;;;29.80;16.30;;;;;;;6.68;82.86;100446.34;134256;1298;22922;-78
2023/04/21 01:44:48;;;;;;;;;;;;;;;;;;;;;
2023/04/21 01:48:06;;;;;;;32.50;16.10;;;;;;;6.62;82.63;100449.41;134133;1299;23108;-78
2023/04/21 01:51:17;;;;;;;35.50;16.80;;;;;;;6.59;82.58;100447.69;134302;1298;22374;-78
2023/04/21 01:54:20;;;;;;;;;;;;;;;6.58;82.51;100446.05;134328;1299;22453;-78
2023/04/21 01:57:32;;;;;;;;;;;;;;;;;;;;;
2023/04/21 02:00:58;;;;;;;26.10;16.00;;;;;;;6.58;82.45;100443.94;134249;1304;22351;-78
2023/04/21 02:04:26;;;;;;;25.00;15.40;;;;;;;6.59;82.41;100446.83;134122;1292;22379;-78
2023/04/21 02:07:32;;;;;;;28.50;16.70;;;;;;;6.61;82.30;100444.52;134344;1299;23190;-78
2023/04/21 02:11:16;;;;;;;30.40;16.90;;;;;;;6.64;82.23;100444.27;134307;1295;22416;-78
2023/04/21 02:14:24;;;;;;;24.60;15.40;;;;;;;6.65;81.94;100442.60;134126;1301;23225;-83
2023/04/21 02:18:02;;;;;;;29.80;17.40;;;;;;;6.65;81.93;100442.45;134272;1299;22475;-78
2023/04/21 02:21:06;;;;;;;29.70;16.10;;;;;;;6.65;81.67;100440.88;134114;1298;22893;-78
2023/04/21 02:24:07;;;;;;;33.40;17.70;;;;;;;6.63;81.85;100443.68;134139;1298;22916;-78
2023/04/21 02:27:58;;;;;;;;;;;;;;;;;;;;;
2023/04/21 02:31:17;;;;;;;29.20;16.70;;;;;;;6.67;81.37;100443.14;133889;1302;22463;-78
2023/04/21 02:34:19;;;;;;;31.10;16.80;;;;;;;6.65;81.37;100447.38;134283;1299;22395;-78
2023/04/21 02:38:45;;;;;;;30.10;16.60;;;;;;;6.63;81.35;100443.79;134104;1298;22457;-78
2023/04/21 02:42:21;;;;;;;;;;;;;;;;;;;;;
2023/04/21 02:45:42;;;;;;;33.70;17.10;;;;;;;6.57;81.30;100445.79;134031;1299;22377;-80
2023/04/21 02:48:49;;;;;;;32.50;17.00;;;;;;;6.53;81.14;100447.34;133956;1302;22839;-79
2023/04/21 02:52:26;;;;;;;29.80;17.20;;;;;;;6.48;81.20;100453.42;134096;1304;22357;-78
2023/04/21 02:55:40;;;;;;;32.70;16.90;;;;;;;6.43;81.13;100446.46;134018;1298;22376;-78
2023/04/21 02:58:52;;;;;;;30.00;16.70;;;;;;;6.40;81.05;100451.96;134342;1298;22350;-78
2023/04/21 03:02:18;;;;;;;34.60;17.40;;;;;;;6.38;80.97;100456.56;134303;1298;22264;-78
2023/04/21 03:06:26;;;;;;;26.70;16.50;;;;;;;6.34;80.93;100453.89;134167;1301;22197;-79
2023/04/21 03:09:33;;;;;;;30.00;16.30;;;;;;;6.31;80.96;100451.51;134008;1304;22431;-78
2023/04/21 03:12:44;;;;;;;29.70;17.60;;;;;;;6.26;80.87;100449.43;134284;1299;22406;-78
2023/04/21 03:15:45;;;;;;;26.70;16.50;;;;;;;6.24;80.83;100451.56;134326;1299;23004;-78
2023/04/21 03:18:49;;;;;;;32.30;17.20;;;;;;;6.20;80.75;100450.48;134028;1304;22209;-78
2023/04/21 03:22:09;;;;;;;27.40;16.50;;;;;;;6.19;80.72;100446.86;133987;1302;22335;-80
2023/04/21 03:25:15;;;;;;;27.60;17.10;;;;;;;6.19;80.79;100446.05;134037;1298;22238;-83
2023/04/21 03:28:21;;;;;;;26.80;17.00;;;;;;;6.22;80.88;100448.41;134035;1300;22383;-77
2023/04/21 03:31:32;;;;;;;24.30;15.40;;;;;;;6.24;80.66;100449.80;134074;1304;22450;-78
2023/04/21 03:34:36;;;;;;;25.60;15.50;;;;;;;6.25;80.56;100454.08;134034;1305;22370;-78
2023/04/21 03:37:38;;;;;;;29.80;16.60;;;;;;;6.26;80.39;100454.92;133967;1306;22219;-79
2023/04/21 03:40:39;;;;;;;25.20;16.80;;;;;;;6.24;80.45;100458.55;134012;1301;22415;-77
2023/04/21 03:44:00;;;;;;;;;;;;;;;6.19;80.19;100460.44;134075;1299;22672;-81
2023/04/21 03:47:02;;;;;;;28.50;16.40;;;;;;;6.14;80.11;100459.48;134054;1299;22359;-78
2023/04/21 03:50:53;;;;;;;;;;;;;;;;;;;;;
2023/04/21 03:54:37;;;;;;;24.00;15.60;;;;;;;6.05;80.15;100460.22;134022;1302;23113;-78
2023/04/21 04:01:59;;;;;;;23.90;15.70;;;;;;;5.95;80.05;100466.30;133712;1298;22192;-78
2023/04/21 04:05:02;;;;;;;;;;;;;;;5.93;79.82;100467.33;134073;1298;22536;-78
2023/04/21 04:08:03;;;;;;;25.30;16.00;;;;;;;5.91;80.01;100465.22;134086;1298;22351;-78
2023/04/21 04:11:07;;;;;;;23.30;14.70;;;;;;;5.93;79.85;100470.85;134064;1299;22329;-78
2023/04/21 04:14:31;;;;;;;26.70;16.30;;;;;;;6.00;79.89;100468.39;134080;1298;22259;-83
2023/04/21 04:17:52;;;;;;;31.40;16.10;;;;;;;6.12;79.96;100472.98;134118;1299;23082;-78
2023/04/21 04:21:16;;;;;;;24.90;14.80;;;;;;;6.32;79.78;100474.23;134154;1298;23181;-78
2023/04/21 04:24:20;;;;;;;27.50;15.80;;;;;;;6.58;79.71;100475.75;134268;1299;22258;-78
2023/04/21 04:27:21;;;;;;;29.80;15.60;;;;;;;6.82;79.61;100479.45;134315;1299;22407;-81
2023/04/21 04:30:55;;;;;;;25.10;15.60;;;;;;;7.11;79.50;100475.84;134297;1299;23603;-78
2023/04/21 04:34:08;;;;;;;26.00;16.50;;;;;;;7.49;79.41;100478.48;134315;1302;22397;-78
2023/04/21 04:37:57;;;;;;;;;;;;;;;;;;;;;
2023/04/21 04:41:01;;;;;;;25.30;14.90;;;;;;;8.09;78.54;100482.11;134302;1298;23165;-76
2023/04/21 04:44:20;;;;;;;;;;;;;;;;;;;;;
2023/04/21 04:48:01;;;;;;;26.40;16.80;;;;;;;8.56;77.85;100479.20;134320;1299;22429;-74
2023/04/21 04:51:10;;;;;;;23.60;14.90;;;;;;;8.92;77.86;100474.57;133944;1298;22487;-74
2023/04/21 04:54:27;;;;;;;23.70;13.60;;;;;;;9.28;77.67;100475.61;134287;1289;22365;-75
2023/04/21 04:58:08;;;;;;;;;;;;;;;;;;;;;
2023/04/21 05:01:24;;;;;;;26.50;15.70;;;;;;;9.95;76.53;100476.42;134266;1298;22421;-74
2023/04/21 05:05:06;;;;;;;;;;;;;;;;;;;;;
2023/04/21 05:08:47;;;;;;;;;;;;;;;;;;;;;
2023/04/21 05:13:34;;;;;;;23.50;14.90;;;;;;;11.21;75.07;100474.14;134074;1299;22351;-77
2023/04/21 05:16:33;;;;;;;24.50;15.10;;;;;;;11.80;74.54;100476.83;134023;1299;22358;-75
2023/04/21 05:19:57;;;;;;;20.40;14.60;;;;;;;12.50;74.02;100477.40;134036;1298;22424;-76
2023/04/21 05:23:44;;;;;;;21.80;14.40;;;;;;;13.01;72.94;100475.68;134053;1298;22335;-75
2023/04/21 05:31:25;;;;;;;22.60;14.40;;;;;;;13.64;70.93;100476.93;134013;1306;22137;-75
2023/04/21 05:34:46;;;;;;;22.50;13.80;;;;;;;13.89;69.94;100478.93;134076;1298;22446;-75
2023/04/21 05:38:32;;;;;;;;;;;;;;;;;;;;;
2023/04/21 05:46:12;;;;;;;20.60;14.40;;;;;;;15.06;68.30;100476.70;134015;1298;22373;-76
2023/04/21 05:50:32;;;;;;;30.40;14.10;;;;;;;15.39;66.98;100477.83;134071;1298;22193;-77
2023/04/21 05:54:26;;;;;;;23.20;14.20;;;;;;;15.61;66.14;100475.01;134029;1298;22361;-76
2023/04/21 06:02:23;;;;;;;19.20;14.10;;;;;;;15.67;63.97;100476.27;133856;1298;22553;-76
2023/04/21 06:05:44;;;;;;;21.50;14.70;;;;;;;15.68;63.21;100471.22;134034;1305;22399;-77
2023/04/21 06:09:39;;;;;;;;;;;;;;;;;;;;;
2023/04/21 06:13:05;;;;;;;21.30;14.40;;;;;;;15.66;62.97;100467.74;133790;1299;22422;-75
2023/04/21 06:20:36;;;;;;;20.50;12.80;;;;;;;15.55;59.61;100470.20;133773;1299;22953;-75
2023/04/21 06:24:28;;;;;;;21.40;13.70;;;;;;;15.23;58.84;100473.21;134042;1298;23053;-76
2023/04/21 06:27:34;;;;;;;18.70;14.00;;;;;;;15.05;58.55;100477.39;133972;1301;22419;-75
2023/04/21 06:35:23;;;;;;;23.30;12.90;;;;;;;14.91;58.09;100472.13;133860;1298;24787;-76
2023/04/21 06:38:47;;;;;;;21.30;15.00;;;;;;;14.90;57.60;100469.40;134049;1299;22465;-76
2023/04/21 06:42:35;;;;;;;20.10;13.90;;;;;;;15.16;58.84;100467.16;134041;1299;22343;-75
2023/04/21 06:46:24;;;;;;;20.10;13.80;;;;;;;15.50;58.35;100464.36;134041;1303;22534;-76
2023/04/21 06:53:37;;;;;;;23.10;14.10;;;;;;;15.56;56.73;100466.64;133878;1298;22332;-76
2023/04/21 06:57:49;;;;;;;19.50;13.60;;;;;;;15.55;56.43;100467.70;134081;1305;22109;-75
2023/04/21 07:04:42;;;;;;;20.10;13.80;;;;;;;15.70;56.42;100464.09;134032;1299;22344;-75
2023/04/21 07:08:29;;;;;;;19.30;15.20;;;;;;;15.86;56.13;100462.55;134081;1299;22336;-75
2023/04/21 07:12:05;;;;;;;21.70;13.90;;;;;;;15.86;55.74;100464.10;133780;1298;22435;-75
2023/04/21 07:15:23;;;;;;;19.30;14.00;;;;;;;16.00;55.41;100465.26;133916;1298;23167;-75
2023/04/21 07:18:48;;;;;;;25.60;15.00;;;;;;;16.07;55.00;100467.45;134126;1304;22533;-76
2023/04/21 07:22:09;;;;;;;24.40;14.70;;;;;;;16.30;55.52;100469.35;134142;1304;23235;-76
2023/04/21 07:25:18;;;;;;;23.30;14.90;;;;;;;16.44;54.82;100468.23;134301;1299;23106;-76
2023/04/21 07:29:02;;;;;;;;;;;;;;;;;;;;;
2023/04/21 07:33:15;;;;;;;;;;;;;;;;;;;;;
2023/04/21 07:36:30;;;;;;;20.90;15.20;;;;;;;17.23;53.95;100464.30;134111;1299;22466;-76
2023/04/21 07:40:04;;;;;;;;;;;;;;;;;;;;;
2023/04/21 07:44:07;;;;;;;21.30;14.70;;;;;;;17.23;53.45;100466.83;134118;1298;22376;-75
2023/04/21 07:47:14;;;;;;;20.10;14.50;;;;;;;17.41;53.92;100468.98;134350;1296;22370;-76
2023/04/21 07:50:15;;;;;;;21.70;14.40;;;;;;;17.78;53.54;100464.70;134288;1296;22453;-76
2023/04/21 07:54:11;;;;;;;19.20;14.20;;;;;;;17.86;52.60;100465.60;134119;1296;22386;-76
2023/04/21 07:57:25;;;;;;;24.80;15.30;;;;;;;17.98;52.96;100464.19;134106;1299;22368;-76
2023/04/21 08:01:15;;;;;;;;;;;;;;;;;;;;;
2023/04/21 08:04:19;;;;;;;27.90;15.30;;;;;;;18.54;52.55;100468.09;134225;1304;23365;-76
2023/04/21 08:07:36;;;;;;;;;;;;;;;;;;;;;
2023/04/21 08:10:48;;;;;;;21.80;15.20;;;;;;;18.73;52.63;100463.83;134364;1298;22477;-75
2023/04/21 08:14:20;;;;;;;23.50;15.40;;;;;;;19.01;52.39;100465.19;134270;1296;22462;-76
2023/04/21 08:17:33;;;;;;;19.00;15.00;;;;;;;19.13;51.76;100459.91;134178;1299;22172;-76
2023/04/21 08:20:46;;;;;;;19.30;14.60;;;;;;;19.20;51.39;100460.66;134361;1298;23242;-76
2023/04/21 08:28:15;;;;;;;21.10;15.10;;;;;;;19.49;51.13;100459.89;134320;1299;23182;-76
2023/04/21 08:40:56;;;;;;;;;;;;;;;;;;;;;
2023/04/21 08:44:50;;;;;;;20.30;13.70;;;;;;;20.19;50.10;100450.83;134132;1296;22365;-78
2023/04/21 08:48:23;;;;;;;19.00;12.90;;;;;;;20.12;49.53;100449.93;134305;1298;22433;-77
2023/04/21 08:51:55;;;;;;;14.90;11.70;;;;;;;19.87;48.78;100446.39;134312;1298;22350;-76
2023/04/21 08:55:16;;;;;;;18.30;11.30;;;;;;;19.70;48.74;100450.35;134315;1299;22129;-77
2023/04/21 08:58:30;;;;;;;18.00;13.00;;;;;;;19.40;47.61;100450.63;134306;1297;22440;-78
2023/04/21 09:01:53;;;;;;;18.10;12.80;;;;;;;19.21;47.82;100444.08;134371;1299;22399;-77
2023/04/21 09:05:36;;;;;;;20.60;12.00;;;;;;;19.14;47.87;100440.00;134287;1298;22448;-76
2023/04/21 09:09:11;;;;;;;17.10;12.50;;;;;;;19.20;47.85;100440.19;134314;1299;23099;-76
2023/04/21 09:12:24;;;;;;;14.60;11.60;;;;;;;19.33;47.70;100440.33;134350;1297;22371;-76
2023/04/21 09:15:59;;;;;;;;;;;;;;;;;;;;;
2023/04/21 09:19:10;;;;;;;;;;;;;;;;;;;;;
2023/04/21 09:22:52;;;;;;;;;;;;;;;;;;;;;
2023/04/21 09:27:14;;;;;;;18.00;10.80;;;;;;;19.59;46.79;100430.08;134049;1297;23344;-78
2023/04/21 09:30:57;;;;;;;19.70;13.00;;;;;;;19.57;46.30;100427.16;134087;1299;22396;-75
2023/04/21 09:34:39;;;;;;;;;;;;;;;;;;;;;
2023/04/21 09:38:00;;;;;;;14.80;12.20;;;;;;;19.62;46.61;100419.42;134024;1296;22400;-76
2023/04/21 09:41:52;;;;;;;20.20;11.40;;;;;;;19.77;45.94;100420.61;134372;1297;22356;-76
2023/04/21 09:45:46;;;;;;;14.50;10.90;;;;;;;19.85;45.66;100418.94;134286;1296;22437;-75
2023/04/21 09:49:25;;;;;;;13.20;10.40;;;;;;;20.17;45.31;100415.52;134292;1299;23019;-75
2023/04/21 09:52:32;;;;;;;19.30;10.50;;;;;;;20.19;44.72;100412.32;134168;1304;22203;-75
2023/04/21 09:55:48;;;;;;;16.50;10.90;;;;;;;20.25;44.26;100409.95;134346;1299;22461;-75
2023/04/21 09:59:34;;;;;;;;;;;;;;;;;;;;;
2023/04/21 10:03:02;;;;;;;17.70;9.60;;;;;;;20.40;44.93;100403.89;134345;1299;23955;-76
2023/04/21 10:06:43;;;;;;;;;;;;;;;;;;;;;
2023/04/21 10:09:47;;;;;;;13.30;8.30;;;;;;;20.64;42.41;100392.73;134377;1298;22340;-75
2023/04/21 10:13:21;;;;;;;15.90;8.50;;;;;;;20.57;39.04;100394.75;134115;1304;22497;-76
2023/04/21 10:16:39;;;;;;;11.30;7.60;;;;;;;20.27;37.72;100389.33;134361;1304;22411;-76
2023/04/21 10:19:51;;;;;;;9.40;8.00;;;;;;;20.10;38.58;100383.69;134320;1299;22460;-75
2023/04/21 10:23:10;;;;;;;12.00;6.70;;;;;;;20.14;39.03;100383.48;134341;1296;22955;-75
2023/04/21 10:26:27;;;;;;;10.80;6.80;;;;;;;20.30;38.41;100386.01;134348;1302;23163;-76
2023/04/21 10:29:30;;;;;;;10.70;6.70;;;;;;;20.28;37.79;100384.70;134131;1296;22436;-75
2023/04/21 10:33:04;;;;;;;10.60;7.10;;;;;;;20.22;37.26;100379.71;134356;1296;22575;-75
2023/04/21 10:36:14;;;;;;;10.20;7.50;;;;;;;20.26;37.44;100380.51;134216;1297;22222;-75
2023/04/21 10:40:22;;;;;;;;;;;;;;;;;;;;;
2023/04/21 10:43:46;;;;;;;11.90;8.30;;;;;;;19.73;37.91;100370.09;133691;1297;22417;-77
2023/04/21 10:46:53;;;;;;;9.80;7.90;;;;;;;19.77;38.69;100371.80;134349;1298;22679;-75
2023/04/21 10:50:32;;;;;;;13.20;8.30;;;;;;;19.72;38.36;100373.19;134349;1297;23046;-76
2023/04/21 10:54:28;;;;;;;11.00;7.90;;;;;;;19.15;37.96;100368.70;134363;1298;23203;-75
2023/04/21 10:57:32;;;;;;;12.10;8.00;;;;;;;18.71;38.90;100365.63;134276;1297;22196;-75
2023/04/21 11:00:52;;;;;;;10.90;8.50;;;;;;;18.39;38.19;100364.05;134364;1298;22576;-75
2023/04/21 11:04:51;;;;;;;;;;;;;;;;;;;;;
2023/04/21 11:08:02;;;;;;;12.30;9.20;;;;;;;18.30;38.98;100355.94;134034;1297;22206;-76
2023/04/21 11:11:03;;;;;;;12.30;7.60;;;;;;;18.73;39.42;100354.21;134364;1296;22441;-76
2023/04/21 11:14:10;;;;;;;12.30;7.30;;;;;;;19.00;38.60;100355.19;134380;1298;22425;-76
2023/04/21 11:17:42;;;;;;;8.70;7.10;;;;;;;18.87;38.19;100352.45;134335;1297;22374;-75
2023/04/21 11:20:45;;;;;;;12.00;7.40;;;;;;;18.94;38.13;100345.17;134297;1298;22236;-75
2023/04/21 11:23:53;;;;;;;10.30;7.30;;;;;;;19.09;36.77;100344.88;134354;1296;22487;-75
2023/04/21 11:27:38;;;;;;;12.90;7.10;;;;;;;19.24;37.15;100342.16;134172;1301;22364;-76
2023/04/21 11:31:08;;;;;;;12.80;7.50;;;;;;;19.40;37.19;100343.08;134369;1298;22882;-75
2023/04/21 11:34:15;;;;;;;10.60;7.70;;;;;;;19.50;36.88;100337.95;134279;1297;22336;-77
2023/04/21 11:37:22;;;;;;;12.40;7.30;;;;;;;19.25;36.59;100336.81;134330;1302;23300;-75
2023/04/21 11:40:23;;;;;;;9.70;7.40;;;;;;;19.02;36.61;100338.34;134376;1299;22419;-76
2023/04/21 11:43:26;;;;;;;9.30;7.90;;;;;;;18.95;37.00;100332.23;134343;1296;22366;-76
2023/04/21 11:46:32;;;;;;;8.70;6.60;;;;;;;19.03;37.22;100331.72;134341;1298;22399;-76
2023/04/21 11:50:05;;;;;;;9.40;7.20;;;;;;;19.18;37.09;100330.79;134323;1297;23283;-76
2023/04/21 11:53:16;;;;;;;14.60;7.00;;;;;;;19.24;36.82;100327.21;134331;1296;22409;-77
2023/04/21 11:56:57;;;;;;;13.90;7.70;;;;;;;19.31;36.12;100324.53;134359;1296;22412;-75
2023/04/21 12:00:23;;;;;;;8.90;7.10;;;;;;;19.46;36.79;100327.59;134309;1297;22420;-77
2023/04/21 12:03:37;;;;;;;11.00;7.30;;;;;;;19.54;36.75;100320.33;134369;1299;22468;-76
2023/04/21 12:06:41;;;;;;;8.90;6.70;;;;;;;19.56;36.67;100315.33;134364;1296;22395;-76
2023/04/21 12:09:42;;;;;;;10.50;7.50;;;;;;;19.62;37.00;100315.00;134389;1299;22421;-77
2023/04/21 12:12:54;;;;;;;9.30;6.90;;;;;;;19.66;36.63;100309.11;134378;1298;22479;-75
2023/04/21 12:16:01;;;;;;;8.90;7.00;;;;;;;19.70;36.92;100310.89;134407;1299;22216;-75
2023/04/21 12:19:09;;;;;;;9.50;6.70;;;;;;;19.80;37.25;100307.32;134391;1296;22473;-75
2023/04/21 12:22:17;;;;;;;11.00;6.30;;;;;;;19.64;35.74;100304.67;134298;1304;22415;-75
2023/04/21 12:25:21;;;;;;;10.90;6.70;;;;;;;19.50;35.37;100301.68;134183;1296;23074;-76
2023/04/21 12:28:25;;;;;;;9.00;6.00;;;;;;;19.44;35.07;100303.73;134402;1296;22149;-77
2023/04/21 12:31:35;;;;;;;8.70;5.90;;;;;;;19.49;35.32;100297.39;134336;1298;22435;-75
2023/04/21 12:34:36;;;;;;;10.20;5.90;;;;;;;19.54;35.11;100296.80;134346;1296;22459;-76
2023/04/21 12:38:00;;;;;;;9.50;6.30;;;;;;;19.41;34.31;100299.52;134412;1297;23060;-76
2023/04/21 12:41:01;;;;;;;8.10;6.50;;;;;;;19.23;34.75;100290.24;134354;1299;23477;-76
2023/04/21 12:44:02;;;;;;;9.40;6.00;;;;;;;19.33;35.48;100283.74;134325;1298;22466;-75
2023/04/21 12:47:16;;;;;;;7.70;5.30;;;;;;;19.50;35.53;100283.09;134338;1299;22412;-75
2023/04/21 12:50:17;;;;;;;9.60;5.80;;;;;;;19.59;35.51;100282.14;134296;1299;23228;-77
2023/04/21 12:53:18;;;;;;;9.10;5.10;;;;;;;19.54;34.82;100279.64;134347;1298;22925;-75
2023/04/21 12:56:30;;;;;;;6.80;5.40;;;;;;;19.57;34.43;100276.23;134342;1304;22410;-75
2023/04/21 12:59:33;;;;;;;7.60;5.00;;;;;;;19.66;34.51;100275.02;134308;1299;22570;-76
2023/04/21 13:03:09;;;;;;;7.30;5.20;;;;;;;19.58;33.00;100276.66;134347;1299;22346;-76
2023/04/21 13:06:13;;;;;;;6.70;4.80;;;;;;;19.17;33.68;100274.64;134336;1296;22451;-76
2023/04/21 13:09:14;;;;;;;7.10;5.70;;;;;;;18.91;34.11;100273.80;134314;1297;22416;-76
2023/04/21 13:12:15;;;;;;;6.30;5.40;;;;;;;18.94;34.12;100272.59;134371;1299;22460;-75
2023/04/21 13:15:20;;;;;;;8.80;5.50;;;;;;;19.03;34.27;100261.98;134400;1304;22420;-75
2023/04/21 13:18:26;;;;;;;7.30;5.80;;;;;;;19.11;33.78;100260.89;134326;1299;22432;-75
2023/04/21 13:22:27;;;;;;;8.80;5.30;;;;;;;19.06;33.90;100264.30;134318;1297;23148;-76
2023/04/21 13:25:55;;;;;;;8.00;5.50;;;;;;;19.02;34.38;100259.00;134312;1292;22405;-75
2023/04/21 13:28:59;;;;;;;8.40;5.70;;;;;;;19.02;34.17;100255.44;134354;1299;22471;-77
2023/04/21 13:32:12;;;;;;;6.50;5.10;;;;;;;19.00;34.58;100253.23;134383;1301;22459;-76
2023/04/21 13:35:42;;;;;;;6.70;5.00;;;;;;;19.02;34.48;100245.60;134332;1297;22362;-75
2023/04/21 13:38:43;;;;;;;11.10;6.20;;;;;;;19.01;34.28;100246.11;134392;1298;22390;-77
2023/04/21 13:42:10;;;;;;;9.90;6.80;;;;;;;18.96;34.69;100239.11;134309;1297;22111;-76
2023/04/21 13:46:11;;;;;;;;;;;;;;;;;;;;;
2023/04/21 13:49:15;;;;;;;7.90;5.60;;;;;;;18.83;34.95;100232.42;134332;1299;22421;-76
2023/04/21 13:52:16;;;;;;;8.60;5.40;;;;;;;18.82;34.56;100228.63;134389;1299;23241;-75
2023/04/21 13:56:09;;;;;;;8.00;5.60;;;;;;;18.79;34.82;100225.66;134151;1299;22476;-75
2023/04/21 13:59:09;;;;;;;11.20;5.30;;;;;;;18.90;34.79;100223.56;134322;1298;22452;-75
2023/04/21 14:05:52;;;;;;;8.20;5.50;;;;;;;19.06;34.85;100220.54;134154;1297;22356;-75
2023/04/21 14:08:53;;;;;;;7.40;5.20;;;;;;;18.82;35.26;100209.02;134336;1299;22887;-77
2023/04/21 14:11:58;;;;;;;7.70;5.40;;;;;;;18.61;35.76;100217.41;134353;1298;23144;-75
2023/04/21 14:14:59;;;;;;;8.80;6.00;;;;;;;18.37;35.93;100214.30;134333;1298;22422;-76
2023/04/21 14:18:00;;;;;;;12.40;5.90;;;;;;;18.15;36.52;100212.23;134312;1299;24591;-76
2023/04/21 14:21:03;;;;;;;11.10;6.50;;;;;;;18.15;37.53;100209.91;134307;1299;22476;-76
2023/04/21 14:24:31;;;;;;;9.30;6.40;;;;;;;18.29;37.32;100208.89;134176;1289;22276;-75
2023/04/21 14:27:34;;;;;;;8.30;6.70;;;;;;;18.39;37.43;100204.19;134300;1299;23064;-75
2023/04/21 14:31:03;;;;;;;7.10;5.60;;;;;;;18.50;37.12;100205.95;134052;1299;365830;-76
2023/04/21 14:34:06;;;;;;;9.20;5.90;;;;;;;18.51;37.14;100203.88;134305;1299;22366;-75
2023/04/21 14:37:34;;;;;;;11.70;6.50;;;;;;;18.51;36.77;100199.87;134363;1296;22407;-75
2023/04/21 14:40:46;;;;;;;10.00;6.60;;;;;;;18.45;36.40;100195.77;134365;1299;22191;-77
2023/04/21 14:44:18;;;;;;;;;;;;;;;;;;;;;
2023/04/21 14:47:57;;;;;;;12.60;6.40;;;;;;;18.50;36.09;100193.72;134285;1298;22383;-75
2023/04/21 14:51:02;;;;;;;8.00;5.50;;;;;;;18.49;36.14;100194.38;134331;1297;22357;-78
2023/04/21 14:54:03;;;;;;;9.00;6.40;;;;;;;18.40;36.28;100189.20;134277;1299;22461;-70
2023/04/21 14:57:36;;;;;;;8.50;6.30;;;;;;;18.29;37.13;100188.98;134356;1299;22415;-71
2023/04/21 15:01:17;;;;;;;8.80;5.80;;;;;;;18.24;37.46;100180.36;134349;1298;22411;-72
2023/04/21 15:04:37;;;;;;;7.60;6.10;;;;;;;18.15;37.32;100180.86;134340;1305;22381;-78
2023/04/21 15:08:18;;;;;;;;;;;;;;;;;;;;;
2023/04/21 15:11:36;;;;;;;;;;;;;;;;;;;;;
2023/04/21 15:14:54;;;;;;;7.70;5.80;;;;;;;17.87;36.79;100182.03;134280;1297;23155;-74
2023/04/21 15:18:04;;;;;;;7.70;6.30;;;;;;;17.81;37.72;100178.46;134259;1296;22464;-76
2023/04/21 15:21:07;;;;;;;9.30;6.20;;;;;;;17.79;37.79;100171.73;134209;1297;22349;-77
2023/04/21 15:24:09;;;;;;;8.00;5.80;;;;;;;17.77;36.78;100175.93;134162;1298;23200;-75
2023/04/21 15:27:20;;;;;;;12.70;6.40;;;;;;;17.72;36.55;100179.46;134099;1298;22392;-75
2023/04/21 15:30:24;;;;;;;6.30;4.90;;;;;;;17.70;37.20;100172.98;134200;1298;22356;-74
2023/04/21 15:33:25;;;;;;;7.20;5.90;;;;;;;17.70;37.23;100169.77;134211;1298;22471;-75
2023/04/21 15:36:27;;;;;;;8.40;5.50;;;;;;;17.68;37.13;100168.70;134187;1296;22398;-75
2023/04/21 15:39:28;;;;;;;12.40;6.80;;;;;;;17.67;37.45;100162.96;134200;1298;22467;-76
2023/04/21 15:42:29;;;;;;;6.80;5.70;;;;;;;17.65;37.84;100164.27;134147;1298;23208;-75
2023/04/21 15:45:30;;;;;;;7.70;6.10;;;;;;;17.65;37.63;100161.98;134210;1299;22429;-76
2023/04/21 15:48:33;;;;;;;8.60;6.00;;;;;;;17.64;37.73;100158.52;134205;1297;22500;-75
2023/04/21 15:51:42;;;;;;;11.80;5.50;;;;;;;17.61;37.67;100157.87;134173;1298;22334;-75
2023/04/21 15:54:55;;;;;;;11.50;5.90;;;;;;;17.58;37.78;100156.92;134064;1298;22419;-74
2023/04/21 15:58:16;;;;;;;8.60;5.40;;;;;;;17.55;37.60;100153.77;134177;1298;22429;-75
2023/04/21 16:01:21;;;;;;;8.40;5.70;;;;;;;17.51;37.31;100152.55;134148;1299;22881;-75
2023/04/21 16:04:22;;;;;;;8.90;6.00;;;;;;;17.46;37.48;100149.15;134167;1299;22431;-75
2023/04/21 16:07:23;;;;;;;9.60;5.40;;;;;;;17.45;37.50;100150.92;134201;1299;22397;-76
2023/04/21 16:10:24;;;;;;;9.30;5.20;;;;;;;17.43;37.56;100145.38;134225;1298;22377;-80
2023/04/21 16:13:24;;;;;;;6.70;4.20;;;;;;;17.41;37.75;100141.63;134217;1297;22435;-77
2023/04/21 16:16:25;;;;;;;13.30;5.30;;;;;;;17.40;38.19;100142.17;134196;1298;22481;-78
2023/04/21 16:19:30;;;;;;;8.00;5.30;;;;;;;17.38;37.70;100139.08;134187;1298;22703;-76
2023/04/21 16:22:31;;;;;;;7.10;5.10;;;;;;;17.35;37.04;100136.48;134101;1299;22377;-77
2023/04/21 16:25:31;;;;;;;8.20;5.30;;;;;;;17.32;37.43;100135.38;134053;1299;23088;-76
2023/04/21 16:28:32;;;;;;;10.10;6.50;;;;;;;17.31;37.60;100134.02;133937;1299;22410;-78
2023/04/21 16:31:33;;;;;;;12.10;6.70;;;;;;;17.28;37.29;100132.75;134032;1298;22269;-77
2023/04/21 16:34:37;;;;;;;26.00;14.30;;;;;;;17.25;37.56;100135.64;134092;1295;22479;-77
2023/04/21 16:37:51;;;;;;;16.30;11.00;;;;;;;17.22;37.85;100134.30;134060;1302;22444;-76
2023/04/21 16:41:06;;;;;;;8.90;5.40;;;;;;;17.17;37.95;100129.36;134074;1298;22372;-77
2023/04/21 16:44:09;;;;;;;10.20;6.10;;;;;;;17.10;37.96;100125.57;134071;1298;23173;-76
2023/04/21 16:47:16;;;;;;;7.90;4.60;;;;;;;17.03;38.35;100121.49;134059;1298;23088;-76
2023/04/21 16:50:22;;;;;;;7.90;4.80;;;;;;;16.99;38.37;100121.17;134117;1298;23178;-74
2023/04/21 16:53:26;;;;;;;7.30;4.50;;;;;;;16.95;38.44;100122.70;134048;1298;22986;-74
2023/04/21 16:56:30;;;;;;;6.40;5.00;;;;;;;16.91;38.48;100121.07;134063;1299;22354;-73
2023/04/21 16:59:31;;;;;;;10.00;4.60;;;;;;;16.85;38.82;100117.67;134067;1298;22358;-74
2023/04/21 17:02:32;;;;;;;11.70;6.20;;;;;;;16.79;38.99;100117.41;134078;1305;22392;-75